Latest Weather Observations for Busselton Jetty

IDW60801

Issued at 11:35 pm WST Friday 25 July 2014 (issued every 30 minutes, with the page automatically refreshed every 10 minutes)

About weather observations | Map of weather stations | Latest weather observations for WA | Other Formats
Station Details ID: 009937 Name: BUSSELTON JETTY Lat: -33.63 Lon: 115.34 Height: 3.0 m
Data from the previous 72 hours. | See also: Recent months for locations in Western Australia
Date/Time
WST
Temp
°C
App
Temp
°C
Dew
Point
Rel
Hum
%
Delta-T
°C
Wind Press
QNH
hPa
Press
MSL
hPa
Rain
since 9 am
mm
Dir
 
Spd
km/h
Gust
km/h
Spd
kts
Gust
kts
25/11:30pm - - - - - N 41 54 22 29 - - -
25/11:06pm - - - - - N 43 61 23 33 - - -
25/11:00pm - - - - - N 41 50 22 27 - - -
25/10:30pm - - - - - N 41 50 22 27 - - -
25/10:00pm - - - - - N 46 54 25 29 - - -
25/09:30pm - - - - - N 43 50 23 27 - - -
25/09:00pm - - - - - N 44 52 24 28 - - -
25/08:30pm - - - - - N 43 52 23 28 - - -
25/08:00pm - - - - - N 48 59 26 32 - - -
25/07:30pm - - - - - N 52 69 28 37 - - -
25/07:00pm - - - - - N 44 54 24 29 - - -
25/06:30pm - - - - - N 41 48 22 26 - - -
25/06:00pm - - - - - N 41 50 22 27 - - -
25/05:30pm - - - - - N 39 48 21 26 - - -
25/05:00pm - - - - - N 39 44 21 24 - - -
25/04:30pm - - - - - N 39 43 21 23 - - -
25/04:00pm - - - - - N 39 50 21 27 - - -
25/03:30pm - - - - - N 39 48 21 26 - - -
25/03:00pm - - - - - NNW 44 54 24 29 - - -
25/02:30pm - - - - - N 39 48 21 26 - - -
25/02:00pm - - - - - N 35 43 19 23 - - -
25/01:30pm - - - - - NNW 41 50 22 27 - - -
25/01:00pm - - - - - NNW 39 46 21 25 - - -
25/12:30pm - - - - - N 37 43 20 23 - - -
25/12:00pm - - - - - N 33 39 18 21 - - -
25/11:30am - - - - - NNW 33 43 18 23 - - -
25/11:00am - - - - - N 50 59 27 32 - - -
25/10:44am - - - - - N 39 67 21 36 - - -
25/10:30am - - - - - N 35 39 19 21 - - -
25/10:00am - - - - - NNW 48 63 26 34 - - -
25/09:47am - - - - - NNW 52 70 28 38 - - -
25/09:44am - - - - - N 57 70 31 38 - - -
25/09:43am - - - - - N 37 70 20 38 - - -
25/09:30am - - - - - N 33 37 18 20 - - -
25/09:00am - - - - - N 35 39 19 21 - - -
25/08:30am - - - - - N 32 39 17 21 - - -
25/08:00am - - - - - N 33 41 18 22 - - -
25/07:30am - - - - - N 32 39 17 21 - - -
25/07:00am - - - - - N 37 44 20 24 - - -
25/06:30am - - - - - N 32 35 17 19 - - -
25/06:00am - - - - - N 33 39 18 21 - - -
25/05:30am - - - - - N 33 39 18 21 - - -
25/05:00am - - - - - N 32 37 17 20 - - -
25/04:30am - - - - - N 35 39 19 21 - - -
25/04:00am - - - - - N 33 39 18 21 - - -
25/03:30am - - - - - N 28 32 15 17 - - -
25/03:00am - - - - - NNW 26 30 14 16 - - -
25/02:30am - - - - - NNW 24 28 13 15 - - -
25/02:00am - - - - - N 20 22 11 12 - - -
25/01:30am - - - - - N 19 19 10 10 - - -
25/01:00am - - - - - N 17 19 9 10 - - -
25/12:30am - - - - - N 17 19 9 10 - - -
25/12:00am - - - - - N 13 15 7 8 - - -
 
Date/Time
WST
Temp
°C
App
Temp
°C
Dew
Point
Rel
Hum
%
Delta-T
°C
Wind Press
QNH
hPa
Press
MSL
hPa
Rain
since 9 am
mm
Dir
 
Spd
km/h
Gust
km/h
Spd
kts
Gust
kts
24/11:30pm - - - - - NW 19 22 10 12 - - -
24/11:00pm - - - - - NNW 19 20 10 11 - - -
24/10:30pm - - - - - ENE 22 28 12 15 - - -
24/10:00pm - - - - - ENE 22 26 12 14 - - -
24/09:30pm - - - - - ENE 19 22 10 12 - - -
24/09:00pm - - - - - NE 19 22 10 12 - - -
24/08:30pm - - - - - ENE 22 24 12 13 - - -
24/08:00pm - - - - - NNE 17 19 9 10 - - -
24/07:30pm - - - - - E 15 17 8 9 - - -
24/07:00pm - - - - - NNW 7 9 4 5 - - -
24/06:30pm - - - - - N 13 13 7 7 - - -
24/06:00pm - - - - - N 17 19 9 10 - - -
24/05:30pm - - - - - N 17 19 9 10 - - -
24/05:00pm - - - - - N 20 24 11 13 - - -
24/04:30pm - - - - - NNW 17 19 9 10 - - -
24/04:00pm - - - - - NNW 26 33 14 18 - - -
24/03:30pm - - - - - N 19 22 10 12 - - -
24/03:00pm - - - - - NE 19 20 10 11 - - -
24/02:30pm - - - - - NE 19 20 10 11 - - -
24/02:00pm - - - - - NE 15 17 8 9 - - -
24/01:30pm - - - - - NE 13 15 7 8 - - -
24/01:00pm - - - - - NNE 11 13 6 7 - - -
24/12:30pm - - - - - NNE 11 13 6 7 - - -
24/12:00pm - - - - - NNE 9 11 5 6 - - -
24/11:30am - - - - - NE 7 7 4 4 - - -
24/11:00am - - - - - ENE 6 7 3 4 - - -
24/10:30am - - - - - E 6 7 3 4 - - -
24/10:00am - - - - - ESE 7 7 4 4 - - -
24/09:30am - - - - - SE 6 6 3 3 - - -
24/09:00am - - - - - SE 7 7 4 4 - - -
24/08:30am - - - - - SE 7 9 4 5 - - -
24/08:00am - - - - - SSE 7 9 4 5 - - -
24/07:30am - - - - - WNW 7 9 4 5 - - -
24/07:00am - - - - - SSW 6 7 3 4 - - -
24/06:30am - - - - - W 7 7 4 4 - - -
24/06:00am - - - - - WSW 9 9 5 5 - - -
24/05:30am - - - - - WSW 9 9 5 5 - - -
24/05:00am - - - - - WSW 7 9 4 5 - - -
24/04:30am - - - - - W 9 13 5 7 - - -
24/04:00am - - - - - WSW 11 13 6 7 - - -
24/03:30am - - - - - WSW 13 17 7 9 - - -
24/03:00am - - - - - WSW 15 17 8 9 - - -
24/02:30am - - - - - SW 17 17 9 9 - - -
24/02:00am - - - - - WSW 15 19 8 10 - - -
24/01:30am - - - - - SW 9 9 5 5 - - -
24/01:00am - - - - - SSW 7 9 4 5 - - -
24/12:30am - - - - - SSW 9 13 5 7 - - -
24/12:00am - - - - - WSW 9 11 5 6 - - -
 
Date/Time
WST
Temp
°C
App
Temp
°C
Dew
Point
Rel
Hum
%
Delta-T
°C
Wind Press
QNH
hPa
Press
MSL
hPa
Rain
since 9 am
mm
Dir
 
Spd
km/h
Gust
km/h
Spd
kts
Gust
kts
23/11:30pm - - - - - W 32 43 17 23 - - -
23/11:25pm - - - - - W 32 43 17 23 - - -
23/11:00pm - - - - - NW 19 22 10 12 - - -
23/10:30pm - - - - - NNW 20 24 11 13 - - -
23/10:00pm - - - - - NNW 15 24 8 13 - - -
23/09:30pm - - - - - WNW 17 20 9 11 - - -
23/09:00pm - - - - - WNW 20 28 11 15 - - -
23/08:30pm - - - - - WNW 30 39 16 21 - - -
23/08:25pm - - - - - WNW 28 39 15 21 - - -
23/08:00pm - - - - - NW 17 19 9 10 - - -
23/07:30pm - - - - - NW 15 17 8 9 - - -
23/07:00pm - - - - - NW 17 22 9 12 - - -
23/06:30pm - - - - - NW 24 26 13 14 - - -
23/06:00pm - - - - - NW 11 19 6 10 - - -
23/05:30pm - - - - - NW 19 24 10 13 - - -
23/05:00pm - - - - - NNW 15 17 8 9 - - -
23/04:30pm - - - - - N 26 30 14 16 - - -
23/04:00pm - - - - - N 24 28 13 15 - - -
23/03:30pm - - - - - N 24 28 13 15 - - -
23/03:00pm - - - - - NNW 22 28 12 15 - - -
23/02:30pm - - - - - NNW 22 28 12 15 - - -
23/02:00pm - - - - - NNE 15 17 8 9 - - -
23/01:30pm - - - - - N 13 15 7 8 - - -
23/01:00pm - - - - - NNE 13 13 7 7 - - -
23/12:30pm - - - - - N 9 9 5 5 - - -
23/12:00pm - - - - - N 11 15 6 8 - - -
23/11:30am - - - - - ENE 7 11 4 6 - - -
23/11:00am - - - - - NE 11 15 6 8 - - -
23/10:30am - - - - - ENE 19 22 10 12 - - -
23/10:00am - - - - - E 19 22 10 12 - - -
23/09:30am - - - - - E 17 20 9 11 - - -
23/09:00am - - - - - E 13 15 7 8 - - -
23/08:30am - - - - - E 13 15 7 8 - - -
23/08:00am - - - - - E 15 17 8 9 - - -
23/07:30am - - - - - E 13 15 7 8 - - -
23/07:00am - - - - - ESE 11 13 6 7 - - -
23/06:30am - - - - - SSE 15 17 8 9 - - -
23/06:00am - - - - - S 15 17 8 9 - - -
23/05:30am - - - - - S 13 15 7 8 - - -
23/05:00am - - - - - S 9 11 5 6 - - -
23/04:30am - - - - - W 11 15 6 8 - - -
23/04:00am - - - - - W 15 19 8 10 - - -
23/03:30am - - - - - WSW 13 15 7 8 - - -
23/03:00am - - - - - W 15 20 8 11 - - -
23/02:30am - - - - - W 24 30 13 16 - - -
23/02:00am - - - - - WSW 9 11 5 6 - - -
23/01:30am - - - - - S 13 17 7 9 - - -
23/01:00am - - - - - SW 13 17 7 9 - - -
23/12:30am - - - - - SW 17 19 9 10 - - -
23/12:00am - - - - - WSW 17 20 9 11 - - -

Other Formats:

Comma delimited format used in spreadsheet applications
http://www.bom.gov.au/fwo/IDW60801/IDW60801.95602.axf

JavaScript Object Notation format (JSON) in row-major order
http://www.bom.gov.au/fwo/IDW60801/IDW60801.95602.json